sensor_id;sensor_type;location;lat;lon;timestamp;P1;durP1;ratioP1;P2;durP2;ratioP2
48809;SDS011;40070;47.322;18.784;2024-01-30T00:01:17;28.42;;;12.06;;
48809;SDS011;40070;47.322;18.784;2024-01-30T00:03:14;24.92;;;13.14;;
48809;SDS011;40070;47.322;18.784;2024-01-30T00:05:15;25.93;;;14.04;;
48809;SDS011;40070;47.322;18.784;2024-01-30T00:07:16;28.37;;;13.04;;
48809;SDS011;40070;47.322;18.784;2024-01-30T00:09:17;25.47;;;13.23;;
48809;SDS011;40070;47.322;18.784;2024-01-30T00:11:18;26.12;;;13.15;;
48809;SDS011;40070;47.322;18.784;2024-01-30T00:13:19;22.06;;;11.86;;
48809;SDS011;40070;47.322;18.784;2024-01-30T00:15:20;24.15;;;11.46;;
48809;SDS011;40070;47.322;18.784;2024-01-30T00:17:21;20.00;;;11.45;;
48809;SDS011;40070;47.322;18.784;2024-01-30T00:19:23;28.48;;;14.01;;
48809;SDS011;40070;47.322;18.784;2024-01-30T00:21:23;26.64;;;11.16;;
48809;SDS011;40070;47.322;18.784;2024-01-30T00:23:24;29.68;;;12.74;;
48809;SDS011;40070;47.322;18.784;2024-01-30T00:25:25;24.70;;;11.95;;
48809;SDS011;40070;47.322;18.784;2024-01-30T00:27:26;21.77;;;12.54;;
48809;SDS011;40070;47.322;18.784;2024-01-30T00:29:27;20.57;;;12.64;;
48809;SDS011;40070;47.322;18.784;2024-01-30T00:31:28;28.02;;;13.24;;
48809;SDS011;40070;47.322;18.784;2024-01-30T00:33:29;24.27;;;12.63;;
48809;SDS011;40070;47.322;18.784;2024-01-30T00:35:30;24.19;;;11.83;;
48809;SDS011;40070;47.322;18.784;2024-01-30T00:37:31;23.53;;;11.15;;
48809;SDS011;40070;47.322;18.784;2024-01-30T00:39:32;34.36;;;13.21;;
48809;SDS011;40070;47.322;18.784;2024-01-30T00:41:33;21.77;;;11.84;;
48809;SDS011;40070;47.322;18.784;2024-01-30T00:43:34;23.69;;;12.05;;
48809;SDS011;40070;47.322;18.784;2024-01-30T00:45:35;23.78;;;13.13;;
48809;SDS011;40070;47.322;18.784;2024-01-30T00:47:37;23.91;;;12.25;;
48809;SDS011;40070;47.322;18.784;2024-01-30T00:49:38;21.48;;;11.15;;
48809;SDS011;40070;47.322;18.784;2024-01-30T00:51:39;21.94;;;11.15;;
48809;SDS011;40070;47.322;18.784;2024-01-30T00:53:40;20.91;;;10.76;;
48809;SDS011;40070;47.322;18.784;2024-01-30T00:55:40;22.75;;;11.85;;
48809;SDS011;40070;47.322;18.784;2024-01-30T00:57:41;22.39;;;10.47;;
48809;SDS011;40070;47.322;18.784;2024-01-30T00:59:42;21.69;;;11.45;;
48809;SDS011;40070;47.322;18.784;2024-01-30T01:01:43;24.96;;;12.62;;
48809;SDS011;40070;47.322;18.784;2024-01-30T01:03:44;22.64;;;11.93;;
48809;SDS011;40070;47.322;18.784;2024-01-30T01:05:45;21.92;;;11.82;;
48809;SDS011;40070;47.322;18.784;2024-01-30T01:07:46;22.62;;;11.44;;
48809;SDS011;40070;47.322;18.784;2024-01-30T01:09:47;23.26;;;10.35;;
48809;SDS011;40070;47.322;18.784;2024-01-30T01:11:48;18.70;;;9.07;;
48809;SDS011;40070;47.322;18.784;2024-01-30T01:13:49;18.41;;;9.67;;
48809;SDS011;40070;47.322;18.784;2024-01-30T01:15:50;21.07;;;11.85;;
48809;SDS011;40070;47.322;18.784;2024-01-30T01:17:51;20.41;;;9.69;;
48809;SDS011;40070;47.322;18.784;2024-01-30T01:19:52;17.03;;;9.40;;
48809;SDS011;40070;47.322;18.784;2024-01-30T01:21:53;20.65;;;10.87;;
48809;SDS011;40070;47.322;18.784;2024-01-30T01:23:54;26.86;;;11.06;;
48809;SDS011;40070;47.322;18.784;2024-01-30T01:25:55;17.73;;;9.67;;
48809;SDS011;40070;47.322;18.784;2024-01-30T01:27:56;19.99;;;9.77;;
48809;SDS011;40070;47.322;18.784;2024-01-30T01:29:57;20.96;;;10.07;;
48809;SDS011;40070;47.322;18.784;2024-01-30T01:31:58;18.16;;;9.68;;
48809;SDS011;40070;47.322;18.784;2024-01-30T01:33:59;21.63;;;9.58;;
48809;SDS011;40070;47.322;18.784;2024-01-30T01:36:00;17.32;;;9.28;;
48809;SDS011;40070;47.322;18.784;2024-01-30T01:38:01;17.33;;;9.88;;
48809;SDS011;40070;47.322;18.784;2024-01-30T01:40:02;19.43;;;9.39;;
48809;SDS011;40070;47.322;18.784;2024-01-30T01:42:05;19.33;;;10.57;;
48809;SDS011;40070;47.322;18.784;2024-01-30T01:44:06;17.72;;;9.68;;
48809;SDS011;40070;47.322;18.784;2024-01-30T01:46:07;17.79;;;8.79;;
48809;SDS011;40070;47.322;18.784;2024-01-30T01:48:09;21.34;;;10.17;;
48809;SDS011;40070;47.322;18.784;2024-01-30T01:50:10;20.89;;;10.06;;
48809;SDS011;40070;47.322;18.784;2024-01-30T01:52:12;20.37;;;10.84;;
48809;SDS011;40070;47.322;18.784;2024-01-30T01:54:14;23.90;;;10.36;;
48809;SDS011;40070;47.322;18.784;2024-01-30T01:56:14;20.63;;;11.17;;
48809;SDS011;40070;47.322;18.784;2024-01-30T01:58:16;18.47;;;10.87;;
48809;SDS011;40070;47.322;18.784;2024-01-30T02:00:17;20.94;;;10.18;;
48809;SDS011;40070;47.322;18.784;2024-01-30T02:02:18;18.76;;;9.88;;
48809;SDS011;40070;47.322;18.784;2024-01-30T02:04:19;20.57;;;9.18;;
48809;SDS011;40070;47.322;18.784;2024-01-30T02:06:21;25.49;;;10.37;;
48809;SDS011;40070;47.322;18.784;2024-01-30T02:08:23;20.41;;;10.57;;
48809;SDS011;40070;47.322;18.784;2024-01-30T02:10:23;25.76;;;10.46;;
48809;SDS011;40070;47.322;18.784;2024-01-30T02:12:24;16.86;;;9.37;;
48809;SDS011;40070;47.322;18.784;2024-01-30T02:14:25;21.34;;;10.47;;
48809;SDS011;40070;47.322;18.784;2024-01-30T02:16:26;19.59;;;9.29;;
48809;SDS011;40070;47.322;18.784;2024-01-30T02:18:27;19.45;;;10.18;;
48809;SDS011;40070;47.322;18.784;2024-01-30T02:20:28;23.12;;;9.59;;
48809;SDS011;40070;47.322;18.784;2024-01-30T02:22:29;19.09;;;10.17;;
48809;SDS011;40070;47.322;18.784;2024-01-30T02:24:31;17.68;;;10.17;;
48809;SDS011;40070;47.322;18.784;2024-01-30T02:26:32;18.67;;;9.29;;
48809;SDS011;40070;47.322;18.784;2024-01-30T02:28:33;18.12;;;8.30;;
48809;SDS011;40070;47.322;18.784;2024-01-30T02:30:34;22.18;;;10.78;;
48809;SDS011;40070;47.322;18.784;2024-01-30T02:32:35;17.86;;;9.69;;
48809;SDS011;40070;47.322;18.784;2024-01-30T02:34:36;21.14;;;10.48;;
48809;SDS011;40070;47.322;18.784;2024-01-30T02:36:38;22.64;;;8.90;;
48809;SDS011;40070;47.322;18.784;2024-01-30T02:38:38;22.55;;;10.17;;
48809;SDS011;40070;47.322;18.784;2024-01-30T02:40:40;19.80;;;10.18;;
48809;SDS011;40070;47.322;18.784;2024-01-30T02:42:41;22.93;;;9.88;;
48809;SDS011;40070;47.322;18.784;2024-01-30T02:44:41;21.10;;;10.87;;
48809;SDS011;40070;47.322;18.784;2024-01-30T02:46:42;22.77;;;9.58;;
48809;SDS011;40070;47.322;18.784;2024-01-30T02:48:43;20.29;;;9.58;;
48809;SDS011;40070;47.322;18.784;2024-01-30T02:50:44;22.72;;;11.16;;
48809;SDS011;40070;47.322;18.784;2024-01-30T02:52:45;18.82;;;9.58;;
48809;SDS011;40070;47.322;18.784;2024-01-30T02:54:46;26.87;;;11.57;;
48809;SDS011;40070;47.322;18.784;2024-01-30T02:56:47;19.99;;;9.68;;
48809;SDS011;40070;47.322;18.784;2024-01-30T02:58:48;18.26;;;9.58;;
48809;SDS011;40070;47.322;18.784;2024-01-30T03:00:51;22.00;;;10.67;;
48809;SDS011;40070;47.322;18.784;2024-01-30T03:02:52;19.25;;;10.17;;
48809;SDS011;40070;47.322;18.784;2024-01-30T03:04:53;19.03;;;8.78;;
48809;SDS011;40070;47.322;18.784;2024-01-30T03:06:54;21.45;;;10.36;;
48809;SDS011;40070;47.322;18.784;2024-01-30T03:08:55;22.48;;;10.56;;
48809;SDS011;40070;47.322;18.784;2024-01-30T03:10:56;20.02;;;9.47;;
48809;SDS011;40070;47.322;18.784;2024-01-30T03:12:57;17.63;;;8.47;;
48809;SDS011;40070;47.322;18.784;2024-01-30T03:14:58;22.86;;;11.04;;
48809;SDS011;40070;47.322;18.784;2024-01-30T03:16:59;19.04;;;10.46;;
48809;SDS011;40070;47.322;18.784;2024-01-30T03:19:00;17.99;;;8.78;;
48809;SDS011;40070;47.322;18.784;2024-01-30T03:21:01;19.79;;;9.15;;
48809;SDS011;40070;47.322;18.784;2024-01-30T03:23:02;18.99;;;9.94;;
48809;SDS011;40070;47.322;18.784;2024-01-30T03:25:03;19.62;;;9.94;;
48809;SDS011;40070;47.322;18.784;2024-01-30T03:27:04;16.68;;;8.96;;
48809;SDS011;40070;47.322;18.784;2024-01-30T03:29:05;19.76;;;10.54;;
48809;SDS011;40070;47.322;18.784;2024-01-30T03:31:06;21.13;;;10.44;;
48809;SDS011;40070;47.322;18.784;2024-01-30T03:33:08;19.58;;;10.64;;
48809;SDS011;40070;47.322;18.784;2024-01-30T03:35:09;18.63;;;9.47;;
48809;SDS011;40070;47.322;18.784;2024-01-30T03:37:09;17.60;;;9.38;;
48809;SDS011;40070;47.322;18.784;2024-01-30T03:39:10;17.00;;;9.08;;
48809;SDS011;40070;47.322;18.784;2024-01-30T03:41:11;22.41;;;10.76;;
48809;SDS011;40070;47.322;18.784;2024-01-30T03:43:12;18.90;;;10.47;;
48809;SDS011;40070;47.322;18.784;2024-01-30T03:45:13;20.25;;;10.77;;
48809;SDS011;40070;47.322;18.784;2024-01-30T03:47:14;16.50;;;9.48;;
48809;SDS011;40070;47.322;18.784;2024-01-30T03:49:18;20.06;;;9.48;;
48809;SDS011;40070;47.322;18.784;2024-01-30T03:51:19;16.86;;;9.09;;
48809;SDS011;40070;47.322;18.784;2024-01-30T03:53:20;22.86;;;11.26;;
48809;SDS011;40070;47.322;18.784;2024-01-30T03:55:21;17.27;;;10.67;;
48809;SDS011;40070;47.322;18.784;2024-01-30T03:57:22;22.25;;;10.18;;
48809;SDS011;40070;47.322;18.784;2024-01-30T03:59:23;16.92;;;9.89;;
48809;SDS011;40070;47.322;18.784;2024-01-30T04:01:24;20.92;;;9.59;;
48809;SDS011;40070;47.322;18.784;2024-01-30T04:03:25;27.47;;;10.18;;
48809;SDS011;40070;47.322;18.784;2024-01-30T04:05:26;21.50;;;9.38;;
48809;SDS011;40070;47.322;18.784;2024-01-30T04:07:27;16.30;;;10.55;;
48809;SDS011;40070;47.322;18.784;2024-01-30T04:09:28;20.29;;;9.65;;
48809;SDS011;40070;47.322;18.784;2024-01-30T04:11:29;19.50;;;8.77;;
48809;SDS011;40070;47.322;18.784;2024-01-30T04:13:30;17.62;;;9.06;;
48809;SDS011;40070;47.322;18.784;2024-01-30T04:15:31;17.34;;;9.65;;
48809;SDS011;40070;47.322;18.784;2024-01-30T04:17:31;15.48;;;8.07;;
48809;SDS011;40070;47.322;18.784;2024-01-30T04:19:33;16.06;;;8.47;;
48809;SDS011;40070;47.322;18.784;2024-01-30T04:21:34;16.09;;;9.74;;
48809;SDS011;40070;47.322;18.784;2024-01-30T04:23:35;17.71;;;9.16;;
48809;SDS011;40070;47.322;18.784;2024-01-30T04:25:36;16.49;;;9.66;;
48809;SDS011;40070;47.322;18.784;2024-01-30T04:27:37;21.08;;;8.58;;
48809;SDS011;40070;47.322;18.784;2024-01-30T04:29:38;19.89;;;9.66;;
48809;SDS011;40070;47.322;18.784;2024-01-30T04:31:39;14.62;;;8.37;;
48809;SDS011;40070;47.322;18.784;2024-01-30T04:33:40;15.31;;;8.86;;
48809;SDS011;40070;47.322;18.784;2024-01-30T04:35:41;15.41;;;8.87;;
48809;SDS011;40070;47.322;18.784;2024-01-30T04:37:42;18.20;;;9.08;;
48809;SDS011;40070;47.322;18.784;2024-01-30T04:39:43;21.04;;;10.65;;
48809;SDS011;40070;47.322;18.784;2024-01-30T04:41:44;17.83;;;9.36;;
48809;SDS011;40070;47.322;18.784;2024-01-30T04:43:45;12.49;;;7.58;;
48809;SDS011;40070;47.322;18.784;2024-01-30T04:45:46;19.09;;;9.57;;
48809;SDS011;40070;47.322;18.784;2024-01-30T04:47:47;18.91;;;9.27;;
48809;SDS011;40070;47.322;18.784;2024-01-30T04:49:48;18.80;;;9.37;;
48809;SDS011;40070;47.322;18.784;2024-01-30T04:51:49;17.92;;;9.06;;
48809;SDS011;40070;47.322;18.784;2024-01-30T04:53:49;22.05;;;9.86;;
48809;SDS011;40070;47.322;18.784;2024-01-30T04:55:50;17.93;;;9.67;;
48809;SDS011;40070;47.322;18.784;2024-01-30T04:57:51;20.90;;;9.75;;
48809;SDS011;40070;47.322;18.784;2024-01-30T04:59:52;15.73;;;9.66;;
48809;SDS011;40070;47.322;18.784;2024-01-30T05:01:53;20.74;;;9.46;;
48809;SDS011;40070;47.322;18.784;2024-01-30T05:03:54;21.85;;;10.83;;
48809;SDS011;40070;47.322;18.784;2024-01-30T05:05:55;16.57;;;9.84;;
48809;SDS011;40070;47.322;18.784;2024-01-30T05:07:56;21.74;;;11.23;;
48809;SDS011;40070;47.322;18.784;2024-01-30T05:09:57;17.40;;;9.07;;
48809;SDS011;40070;47.322;18.784;2024-01-30T05:11:58;18.52;;;9.96;;
48809;SDS011;40070;47.322;18.784;2024-01-30T05:13:59;23.16;;;9.46;;
48809;SDS011;40070;47.322;18.784;2024-01-30T05:16:01;18.29;;;8.57;;
48809;SDS011;40070;47.322;18.784;2024-01-30T05:18:01;15.81;;;9.05;;
48809;SDS011;40070;47.322;18.784;2024-01-30T05:20:02;23.65;;;10.41;;
48809;SDS011;40070;47.322;18.784;2024-01-30T05:22:03;27.50;;;11.19;;
48809;SDS011;40070;47.322;18.784;2024-01-30T05:24:04;20.51;;;10.48;;
48809;SDS011;40070;47.322;18.784;2024-01-30T05:26:05;19.73;;;9.90;;
48809;SDS011;40070;47.322;18.784;2024-01-30T05:28:06;20.44;;;10.29;;
48809;SDS011;40070;47.322;18.784;2024-01-30T05:30:07;31.39;;;11.40;;
48809;SDS011;40070;47.322;18.784;2024-01-30T05:32:08;18.41;;;10.92;;
48809;SDS011;40070;47.322;18.784;2024-01-30T05:34:09;18.74;;;8.95;;
48809;SDS011;40070;47.322;18.784;2024-01-30T05:36:13;20.39;;;9.55;;
48809;SDS011;40070;47.322;18.784;2024-01-30T05:38:11;23.13;;;10.25;;
48809;SDS011;40070;47.322;18.784;2024-01-30T05:40:12;18.66;;;10.44;;
48809;SDS011;40070;47.322;18.784;2024-01-30T05:42:13;20.36;;;10.15;;
48809;SDS011;40070;47.322;18.784;2024-01-30T05:44:14;22.18;;;9.95;;
48809;SDS011;40070;47.322;18.784;2024-01-30T05:46:15;20.78;;;10.15;;
48809;SDS011;40070;47.322;18.784;2024-01-30T05:48:17;21.52;;;9.85;;
48809;SDS011;40070;47.322;18.784;2024-01-30T05:50:18;22.51;;;10.25;;
48809;SDS011;40070;47.322;18.784;2024-01-30T05:52:19;22.86;;;10.06;;
48809;SDS011;40070;47.322;18.784;2024-01-30T05:54:20;28.04;;;10.05;;
48809;SDS011;40070;47.322;18.784;2024-01-30T05:56:21;25.90;;;10.64;;
48809;SDS011;40070;47.322;18.784;2024-01-30T05:58:22;21.74;;;10.63;;
48809;SDS011;40070;47.322;18.784;2024-01-30T06:00:22;20.45;;;9.74;;
48809;SDS011;40070;47.322;18.784;2024-01-30T06:02:23;18.21;;;9.16;;
48809;SDS011;40070;47.322;18.784;2024-01-30T06:04:24;17.46;;;8.49;;
48809;SDS011;40070;47.322;18.784;2024-01-30T06:06:25;19.85;;;9.96;;
48809;SDS011;40070;47.322;18.784;2024-01-30T06:08:26;18.43;;;9.48;;
48809;SDS011;40070;47.322;18.784;2024-01-30T06:10:27;18.62;;;9.76;;
48809;SDS011;40070;47.322;18.784;2024-01-30T06:12:28;16.87;;;8.47;;
48809;SDS011;40070;47.322;18.784;2024-01-30T06:14:29;17.74;;;8.37;;
48809;SDS011;40070;47.322;18.784;2024-01-30T06:16:30;16.43;;;7.98;;
48809;SDS011;40070;47.322;18.784;2024-01-30T06:18:31;20.61;;;7.97;;
48809;SDS011;40070;47.322;18.784;2024-01-30T06:20:32;15.28;;;8.37;;
48809;SDS011;40070;47.322;18.784;2024-01-30T06:22:34;16.74;;;8.18;;
48809;SDS011;40070;47.322;18.784;2024-01-30T06:24:36;16.21;;;7.50;;
48809;SDS011;40070;47.322;18.784;2024-01-30T06:26:37;15.57;;;7.58;;
48809;SDS011;40070;47.322;18.784;2024-01-30T06:28:38;16.67;;;8.65;;
48809;SDS011;40070;47.322;18.784;2024-01-30T06:30:40;17.51;;;9.14;;
48809;SDS011;40070;47.322;18.784;2024-01-30T06:32:41;17.53;;;8.06;;
48809;SDS011;40070;47.322;18.784;2024-01-30T06:34:42;20.21;;;8.67;;
48809;SDS011;40070;47.322;18.784;2024-01-30T06:36:43;18.38;;;9.25;;
48809;SDS011;40070;47.322;18.784;2024-01-30T06:38:44;14.28;;;7.98;;
48809;SDS011;40070;47.322;18.784;2024-01-30T06:40:45;17.40;;;8.76;;
48809;SDS011;40070;47.322;18.784;2024-01-30T06:42:46;17.47;;;9.44;;
48809;SDS011;40070;47.322;18.784;2024-01-30T06:44:47;23.54;;;9.74;;
48809;SDS011;40070;47.322;18.784;2024-01-30T06:46:48;19.40;;;9.05;;
48809;SDS011;40070;47.322;18.784;2024-01-30T06:48:49;17.49;;;9.74;;
48809;SDS011;40070;47.322;18.784;2024-01-30T06:50:50;16.64;;;8.95;;
48809;SDS011;40070;47.322;18.784;2024-01-30T06:52:51;17.42;;;8.76;;
48809;SDS011;40070;47.322;18.784;2024-01-30T06:54:52;16.50;;;7.48;;
48809;SDS011;40070;47.322;18.784;2024-01-30T06:56:53;20.76;;;9.83;;
48809;SDS011;40070;47.322;18.784;2024-01-30T06:58:54;19.81;;;11.02;;
48809;SDS011;40070;47.322;18.784;2024-01-30T07:00:55;17.27;;;9.26;;
48809;SDS011;40070;47.322;18.784;2024-01-30T07:02:56;19.17;;;9.65;;
48809;SDS011;40070;47.322;18.784;2024-01-30T07:04:57;22.16;;;9.95;;
48809;SDS011;40070;47.322;18.784;2024-01-30T07:06:58;17.62;;;9.24;;
48809;SDS011;40070;47.322;18.784;2024-01-30T07:08:59;23.74;;;12.18;;
48809;SDS011;40070;47.322;18.784;2024-01-30T07:11:00;20.16;;;10.12;;
48809;SDS011;40070;47.322;18.784;2024-01-30T07:13:02;17.97;;;8.73;;
48809;SDS011;40070;47.322;18.784;2024-01-30T07:15:03;20.10;;;9.79;;
48809;SDS011;40070;47.322;18.784;2024-01-30T07:17:04;17.96;;;9.21;;
48809;SDS011;40070;47.322;18.784;2024-01-30T07:19:05;18.81;;;9.60;;
48809;SDS011;40070;47.322;18.784;2024-01-30T07:21:06;19.64;;;9.90;;
48809;SDS011;40070;47.322;18.784;2024-01-30T07:23:06;20.05;;;9.01;;
48809;SDS011;40070;47.322;18.784;2024-01-30T07:25:13;18.22;;;10.17;;
48809;SDS011;40070;47.322;18.784;2024-01-30T07:27:14;18.53;;;8.69;;
48809;SDS011;40070;47.322;18.784;2024-01-30T07:29:15;20.40;;;9.77;;
48809;SDS011;40070;47.322;18.784;2024-01-30T07:31:16;18.31;;;9.27;;
48809;SDS011;40070;47.322;18.784;2024-01-30T07:33:17;19.53;;;8.97;;
48809;SDS011;40070;47.322;18.784;2024-01-30T07:35:18;22.12;;;11.50;;
48809;SDS011;40070;47.322;18.784;2024-01-30T07:37:19;21.05;;;9.65;;
48809;SDS011;40070;47.322;18.784;2024-01-30T07:39:20;18.92;;;9.56;;
48809;SDS011;40070;47.322;18.784;2024-01-30T07:41:21;20.72;;;11.10;;
48809;SDS011;40070;47.322;18.784;2024-01-30T07:43:22;21.31;;;10.53;;
48809;SDS011;40070;47.322;18.784;2024-01-30T07:45:23;20.28;;;10.03;;
48809;SDS011;40070;47.322;18.784;2024-01-30T07:47:24;19.63;;;10.61;;
48809;SDS011;40070;47.322;18.784;2024-01-30T07:49:27;20.05;;;11.09;;
48809;SDS011;40070;47.322;18.784;2024-01-30T07:51:26;21.21;;;9.91;;
48809;SDS011;40070;47.322;18.784;2024-01-30T07:53:27;19.31;;;11.38;;
48809;SDS011;40070;47.322;18.784;2024-01-30T07:55:28;18.74;;;9.62;;
48809;SDS011;40070;47.322;18.784;2024-01-30T07:57:29;21.13;;;10.41;;
48809;SDS011;40070;47.322;18.784;2024-01-30T07:59:30;17.84;;;11.10;;
48809;SDS011;40070;47.322;18.784;2024-01-30T08:01:31;19.35;;;11.21;;
48809;SDS011;40070;47.322;18.784;2024-01-30T08:03:32;21.68;;;11.40;;
48809;SDS011;40070;47.322;18.784;2024-01-30T08:05:34;25.14;;;10.92;;
48809;SDS011;40070;47.322;18.784;2024-01-30T08:07:35;22.76;;;11.73;;
48809;SDS011;40070;47.322;18.784;2024-01-30T08:09:35;20.36;;;12.41;;
48809;SDS011;40070;47.322;18.784;2024-01-30T08:11:36;27.90;;;12.30;;
48809;SDS011;40070;47.322;18.784;2024-01-30T08:13:37;19.24;;;10.13;;
48809;SDS011;40070;47.322;18.784;2024-01-30T08:15:39;20.84;;;9.94;;
48809;SDS011;40070;47.322;18.784;2024-01-30T08:17:40;18.41;;;10.33;;
48809;SDS011;40070;47.322;18.784;2024-01-30T08:19:41;17.88;;;9.94;;
48809;SDS011;40070;47.322;18.784;2024-01-30T08:21:42;18.37;;;9.85;;
48809;SDS011;40070;47.322;18.784;2024-01-30T08:23:43;21.83;;;9.45;;
48809;SDS011;40070;47.322;18.784;2024-01-30T08:25:44;21.51;;;10.72;;
48809;SDS011;40070;47.322;18.784;2024-01-30T08:27:45;22.69;;;11.31;;
48809;SDS011;40070;47.322;18.784;2024-01-30T08:29:46;18.84;;;8.39;;
48809;SDS011;40070;47.322;18.784;2024-01-30T08:31:47;14.51;;;8.76;;
48809;SDS011;40070;47.322;18.784;2024-01-30T08:33:48;19.52;;;10.02;;
48809;SDS011;40070;47.322;18.784;2024-01-30T08:35:48;18.91;;;9.85;;
48809;SDS011;40070;47.322;18.784;2024-01-30T08:37:49;20.07;;;10.43;;
48809;SDS011;40070;47.322;18.784;2024-01-30T08:39:50;22.58;;;9.68;;
48809;SDS011;40070;47.322;18.784;2024-01-30T08:41:54;19.00;;;9.59;;
48809;SDS011;40070;47.322;18.784;2024-01-30T08:43:55;20.75;;;9.79;;
48809;SDS011;40070;47.322;18.784;2024-01-30T08:45:58;17.89;;;9.40;;
48809;SDS011;40070;47.322;18.784;2024-01-30T08:47:57;18.55;;;9.51;;
48809;SDS011;40070;47.322;18.784;2024-01-30T08:49:58;18.18;;;9.38;;
48809;SDS011;40070;47.322;18.784;2024-01-30T08:51:59;17.60;;;9.11;;
48809;SDS011;40070;47.322;18.784;2024-01-30T08:54:01;18.62;;;9.32;;
48809;SDS011;40070;47.322;18.784;2024-01-30T08:56:02;18.73;;;9.61;;
48809;SDS011;40070;47.322;18.784;2024-01-30T08:58:03;22.60;;;10.20;;
48809;SDS011;40070;47.322;18.784;2024-01-30T09:00:04;20.05;;;9.40;;
48809;SDS011;40070;47.322;18.784;2024-01-30T09:02:04;19.16;;;9.86;;
48809;SDS011;40070;47.322;18.784;2024-01-30T09:04:05;20.00;;;9.77;;
48809;SDS011;40070;47.322;18.784;2024-01-30T09:06:09;23.98;;;10.54;;
48809;SDS011;40070;47.322;18.784;2024-01-30T09:08:07;17.97;;;10.15;;
48809;SDS011;40070;47.322;18.784;2024-01-30T09:10:09;20.11;;;10.65;;
48809;SDS011;40070;47.322;18.784;2024-01-30T09:12:10;22.09;;;10.73;;
48809;SDS011;40070;47.322;18.784;2024-01-30T09:14:11;21.31;;;9.38;;
48809;SDS011;40070;47.322;18.784;2024-01-30T09:16:12;16.75;;;10.38;;
48809;SDS011;40070;47.322;18.784;2024-01-30T09:18:13;19.72;;;9.96;;
48809;SDS011;40070;47.322;18.784;2024-01-30T09:20:17;22.75;;;11.21;;
48809;SDS011;40070;47.322;18.784;2024-01-30T09:22:18;26.22;;;11.43;;
48809;SDS011;40070;47.322;18.784;2024-01-30T09:24:19;21.72;;;11.33;;
48809;SDS011;40070;47.322;18.784;2024-01-30T09:26:21;20.18;;;9.29;;
48809;SDS011;40070;47.322;18.784;2024-01-30T09:28:22;26.48;;;11.25;;
48809;SDS011;40070;47.322;18.784;2024-01-30T09:30:22;27.97;;;11.57;;
48809;SDS011;40070;47.322;18.784;2024-01-30T09:32:23;21.39;;;10.98;;
48809;SDS011;40070;47.322;18.784;2024-01-30T09:34:25;19.09;;;10.11;;
48809;SDS011;40070;47.322;18.784;2024-01-30T09:36:26;19.32;;;10.12;;
48809;SDS011;40070;47.322;18.784;2024-01-30T09:38:27;24.38;;;11.30;;
48809;SDS011;40070;47.322;18.784;2024-01-30T09:40:28;24.24;;;11.79;;
48809;SDS011;40070;47.322;18.784;2024-01-30T09:42:50;21.26;;;11.61;;
48809;SDS011;40070;47.322;18.784;2024-01-30T09:44:54;24.68;;;11.51;;
48809;SDS011;40070;47.322;18.784;2024-01-30T09:46:57;27.41;;;10.90;;
48809;SDS011;40070;47.322;18.784;2024-01-30T09:48:59;27.53;;;12.97;;
48809;SDS011;40070;47.322;18.784;2024-01-30T09:50:59;24.05;;;12.40;;
48809;SDS011;40070;47.322;18.784;2024-01-30T09:53:00;21.09;;;10.16;;
48809;SDS011;40070;47.322;18.784;2024-01-30T09:55:01;20.02;;;9.87;;
48809;SDS011;40070;47.322;18.784;2024-01-30T09:57:02;17.75;;;8.99;;
48809;SDS011;40070;47.322;18.784;2024-01-30T09:59:03;20.10;;;9.19;;
48809;SDS011;40070;47.322;18.784;2024-01-30T10:01:04;23.65;;;11.76;;
48809;SDS011;40070;47.322;18.784;2024-01-30T10:03:05;21.27;;;11.47;;
48809;SDS011;40070;47.322;18.784;2024-01-30T10:05:07;23.58;;;11.38;;
48809;SDS011;40070;47.322;18.784;2024-01-30T10:07:08;22.54;;;11.18;;
48809;SDS011;40070;47.322;18.784;2024-01-30T10:09:11;23.47;;;11.79;;
48809;SDS011;40070;47.322;18.784;2024-01-30T10:11:12;23.44;;;11.09;;
48809;SDS011;40070;47.322;18.784;2024-01-30T10:13:13;26.15;;;12.05;;
48809;SDS011;40070;47.322;18.784;2024-01-30T10:15:14;26.08;;;12.65;;
48809;SDS011;40070;47.322;18.784;2024-01-30T10:17:17;24.88;;;11.96;;
48809;SDS011;40070;47.322;18.784;2024-01-30T10:19:18;26.18;;;13.55;;
48809;SDS011;40070;47.322;18.784;2024-01-30T10:21:19;27.36;;;12.15;;
48809;SDS011;40070;47.322;18.784;2024-01-30T10:23:22;25.65;;;12.33;;
48809;SDS011;40070;47.322;18.784;2024-01-30T10:25:23;33.62;;;13.71;;
48809;SDS011;40070;47.322;18.784;2024-01-30T10:27:27;27.64;;;13.18;;
48809;SDS011;40070;47.322;18.784;2024-01-30T10:29:26;27.79;;;11.71;;
48809;SDS011;40070;47.322;18.784;2024-01-30T10:31:30;25.77;;;12.59;;
48809;SDS011;40070;47.322;18.784;2024-01-30T10:33:31;24.68;;;12.30;;
48809;SDS011;40070;47.322;18.784;2024-01-30T10:35:32;25.55;;;12.70;;
48809;SDS011;40070;47.322;18.784;2024-01-30T10:37:39;28.65;;;11.58;;
48809;SDS011;40070;47.322;18.784;2024-01-30T10:39:40;22.74;;;11.30;;
48809;SDS011;40070;47.322;18.784;2024-01-30T10:41:45;28.28;;;12.16;;
48809;SDS011;40070;47.322;18.784;2024-01-30T10:43:47;24.84;;;10.77;;
48809;SDS011;40070;47.322;18.784;2024-01-30T10:45:47;24.60;;;11.24;;
48809;SDS011;40070;47.322;18.784;2024-01-30T10:47:50;21.34;;;11.50;;
48809;SDS011;40070;47.322;18.784;2024-01-30T10:49:52;22.94;;;10.62;;
48809;SDS011;40070;47.322;18.784;2024-01-30T10:51:53;24.28;;;11.21;;
48809;SDS011;40070;47.322;18.784;2024-01-30T10:53:55;22.08;;;10.39;;
48809;SDS011;40070;47.322;18.784;2024-01-30T10:55:57;22.24;;;11.82;;
48809;SDS011;40070;47.322;18.784;2024-01-30T10:57:59;25.52;;;10.84;;
48809;SDS011;40070;47.322;18.784;2024-01-30T11:00:00;19.98;;;11.50;;
48809;SDS011;40070;47.322;18.784;2024-01-30T11:02:01;24.55;;;11.52;;
48809;SDS011;40070;47.322;18.784;2024-01-30T11:04:03;20.06;;;9.87;;
48809;SDS011;40070;47.322;18.784;2024-01-30T11:06:04;22.31;;;11.59;;
48809;SDS011;40070;47.322;18.784;2024-01-30T11:08:12;22.81;;;10.75;;
48809;SDS011;40070;47.322;18.784;2024-01-30T11:10:07;20.24;;;10.44;;
48809;SDS011;40070;47.322;18.784;2024-01-30T11:12:21;18.92;;;8.81;;
48809;SDS011;40070;47.322;18.784;2024-01-30T11:14:26;22.08;;;9.32;;
48809;SDS011;40070;47.322;18.784;2024-01-30T11:16:30;18.29;;;9.21;;
48809;SDS011;40070;47.322;18.784;2024-01-30T11:18:25;19.55;;;8.81;;
48809;SDS011;40070;47.322;18.784;2024-01-30T11:20:27;18.41;;;8.52;;
48809;SDS011;40070;47.322;18.784;2024-01-30T11:22:30;17.45;;;7.75;;
48809;SDS011;40070;47.322;18.784;2024-01-30T11:24:29;16.73;;;8.14;;
48809;SDS011;40070;47.322;18.784;2024-01-30T11:26:31;15.25;;;7.54;;
48809;SDS011;40070;47.322;18.784;2024-01-30T11:28:33;15.58;;;7.63;;
48809;SDS011;40070;47.322;18.784;2024-01-30T11:30:37;15.33;;;8.29;;
48809;SDS011;40070;47.322;18.784;2024-01-30T11:32:37;17.54;;;7.89;;
48809;SDS011;40070;47.322;18.784;2024-01-30T11:34:40;16.64;;;7.99;;
48809;SDS011;40070;47.322;18.784;2024-01-30T11:36:41;19.80;;;8.57;;
48809;SDS011;40070;47.322;18.784;2024-01-30T11:38:44;15.01;;;7.63;;
48809;SDS011;40070;47.322;18.784;2024-01-30T11:40:46;18.89;;;8.02;;
48809;SDS011;40070;47.322;18.784;2024-01-30T11:42:48;16.43;;;8.15;;
48809;SDS011;40070;47.322;18.784;2024-01-30T11:44:49;19.89;;;8.44;;